createdAt,value
2022-08-16T00:00:03.653Z,99.90
2022-08-16T00:02:11.957Z,99.90
2022-08-16T00:04:16.789Z,99.90
2022-08-16T00:06:20.837Z,99.90
2022-08-16T00:08:36.253Z,99.90
2022-08-16T00:10:39.964Z,99.90
2022-08-16T00:12:44.274Z,99.90
2022-08-16T00:14:47.045Z,99.90
2022-08-16T00:17:06.334Z,99.90
2022-08-16T00:19:15.893Z,99.90
2022-08-16T00:21:18.686Z,99.90
2022-08-16T00:23:24.567Z,99.90
2022-08-16T00:26:35.391Z,99.90
2022-08-16T00:28:00.430Z,99.90
2022-08-16T00:30:09.250Z,99.90
2022-08-16T00:32:22.479Z,99.90
2022-08-16T00:34:43.973Z,99.90
2022-08-16T00:36:49.366Z,99.90
2022-08-16T00:38:58.794Z,99.90
2022-08-16T00:41:06.090Z,99.90
2022-08-16T00:43:19.071Z,99.90
2022-08-16T00:45:57.999Z,99.90
2022-08-16T00:48:30.651Z,99.90
2022-08-16T00:50:36.573Z,99.90
2022-08-16T00:52:50.139Z,99.90
2022-08-16T00:54:53.470Z,99.90
2022-08-16T00:57:00.346Z,99.90
2022-08-16T00:59:05.711Z,99.90
2022-08-16T01:01:10.375Z,99.90
2022-08-16T01:03:17.408Z,99.90
2022-08-16T01:05:33.917Z,99.90
2022-08-16T01:07:50.427Z,99.90
2022-08-16T01:09:54.910Z,99.90
2022-08-16T01:11:57.483Z,99.90
2022-08-16T01:14:26.717Z,99.90
2022-08-16T01:16:35.113Z,99.90
2022-08-16T01:18:55.471Z,99.90
2022-08-16T01:21:33.707Z,99.90
2022-08-16T01:24:52.831Z,99.90
2022-08-16T01:26:44.995Z,99.90
2022-08-16T01:28:48.869Z,99.90
2022-08-16T01:30:57.825Z,99.90
2022-08-16T01:33:15.105Z,99.90
2022-08-16T01:35:30.721Z,99.90
2022-08-16T01:37:43.161Z,99.90
2022-08-16T01:39:47.316Z,99.90
2022-08-16T01:41:50.224Z,99.90
2022-08-16T01:43:54.657Z,99.90
2022-08-16T01:46:37.816Z,99.90
2022-08-16T01:48:31.896Z,99.90
2022-08-16T01:50:41.731Z,99.90
2022-08-16T01:52:47.523Z,99.90
2022-08-16T01:54:57.001Z,99.90
2022-08-16T01:57:02.346Z,99.90
2022-08-16T01:59:15.704Z,99.90
2022-08-16T02:01:28.124Z,99.90
2022-08-16T02:03:31.162Z,99.90
2022-08-16T02:05:34.863Z,99.90
2022-08-16T02:07:44.164Z,99.90
2022-08-16T02:09:57.191Z,99.90
2022-08-16T02:12:49.541Z,99.90
2022-08-16T02:14:32.612Z,99.90
2022-08-16T02:16:35.996Z,99.90
2022-08-16T02:18:38.962Z,99.90
2022-08-16T02:20:48.166Z,99.90
2022-08-16T02:22:51.372Z,99.90
2022-08-16T02:24:57.843Z,99.90
2022-08-16T02:27:00.577Z,99.90
2022-08-16T02:29:03.990Z,99.90
2022-08-16T02:31:11.262Z,99.90
2022-08-16T02:33:15.426Z,99.90
2022-08-16T02:35:23.190Z,99.90
2022-08-16T02:37:51.532Z,99.90
2022-08-16T02:39:54.062Z,99.90
2022-08-16T02:41:57.136Z,99.90
2022-08-16T02:44:00.518Z,99.90
2022-08-16T02:46:07.340Z,99.90
2022-08-16T02:48:29.370Z,99.90
2022-08-16T02:51:04.230Z,99.90
2022-08-16T02:52:57.420Z,99.90
2022-08-16T02:55:00.853Z,99.90
2022-08-16T02:57:04.552Z,99.90
2022-08-16T02:59:11.447Z,99.90
2022-08-16T03:01:25.271Z,99.90
2022-08-16T03:04:29.868Z,99.90
2022-08-16T03:06:03.267Z,99.90
2022-08-16T03:08:50.304Z,99.90
2022-08-16T03:10:53.250Z,99.90
2022-08-16T03:12:56.846Z,99.90
2022-08-16T03:15:06.265Z,99.90
2022-08-16T03:17:11.217Z,99.90
2022-08-16T03:19:15.516Z,99.90
2022-08-16T03:21:21.198Z,99.90
2022-08-16T03:23:27.618Z,99.90
2022-08-16T03:25:43.967Z,99.90
2022-08-16T03:27:48.265Z,99.90
2022-08-16T03:29:54.624Z,99.90
2022-08-16T03:32:01.505Z,99.90
2022-08-16T03:34:04.785Z,99.90
2022-08-16T03:36:29.711Z,99.90
2022-08-16T03:38:35.730Z,99.90
2022-08-16T03:40:43.434Z,99.90
2022-08-16T03:43:18.663Z,99.90
2022-08-16T03:45:10.001Z,99.90
2022-08-16T03:47:18.665Z,99.90
2022-08-16T03:49:23.662Z,99.90
2022-08-16T03:51:42.309Z,99.90
2022-08-16T03:54:01.026Z,99.90
2022-08-16T03:56:07.910Z,99.90
2022-08-16T03:58:10.794Z,99.90
2022-08-16T04:00:40.253Z,99.90
2022-08-16T04:02:48.574Z,99.90
2022-08-16T04:04:56.556Z,99.90
2022-08-16T04:07:02.672Z,99.90
2022-08-16T04:09:06.296Z,99.90
2022-08-16T04:11:16.405Z,99.90
2022-08-16T04:14:01.222Z,99.90
2022-08-16T04:15:44.649Z,99.90
2022-08-16T04:17:58.258Z,99.90
2022-08-16T04:20:01.498Z,99.90
2022-08-16T04:22:08.483Z,99.90
2022-08-16T04:24:20.005Z,99.90
2022-08-16T04:26:22.768Z,99.90
2022-08-16T04:28:51.653Z,99.90
2022-08-16T04:30:50.548Z,99.90
2022-08-16T04:32:55.619Z,99.90
2022-08-16T04:35:03.435Z,99.90
2022-08-16T04:37:09.894Z,99.90
2022-08-16T04:39:17.428Z,99.90
2022-08-16T04:41:32.688Z,99.90
2022-08-16T04:43:39.070Z,99.90
2022-08-16T04:45:48.032Z,99.90
2022-08-16T04:48:04.568Z,99.90
2022-08-16T04:50:19.429Z,99.90
2022-08-16T04:52:48.676Z,99.90
2022-08-16T04:54:52.868Z,99.90
2022-08-16T04:56:55.770Z,99.90
2022-08-16T04:59:00.773Z,99.90
2022-08-16T05:01:07.843Z,99.90
2022-08-16T05:03:12.707Z,99.90
2022-08-16T05:05:22.246Z,99.90
2022-08-16T05:07:25.444Z,99.90
2022-08-16T05:09:38.381Z,99.90
2022-08-16T05:12:10.999Z,99.90
2022-08-16T05:14:20.286Z,99.90
2022-08-16T05:16:39.236Z,99.90
2022-08-16T05:19:02.325Z,99.90
2022-08-16T05:21:12.498Z,99.90
2022-08-16T05:23:18.855Z,99.90
2022-08-16T05:25:23.984Z,99.90
2022-08-16T05:27:44.179Z,99.90
2022-08-16T05:29:59.284Z,99.90
2022-08-16T05:32:32.441Z,99.90
2022-08-16T05:34:31.266Z,99.90
2022-08-16T05:36:37.046Z,99.90
2022-08-16T05:38:41.366Z,99.90
2022-08-16T05:41:00.056Z,99.90
2022-08-16T05:43:12.163Z,99.90
2022-08-16T05:45:21.915Z,99.90
2022-08-16T05:47:30.213Z,99.90
2022-08-16T05:49:40.294Z,99.90
2022-08-16T05:51:47.334Z,99.90
2022-08-16T05:53:53.551Z,99.90
2022-08-16T05:55:57.930Z,99.90
2022-08-16T05:58:02.168Z,99.90
2022-08-16T06:00:10.303Z,99.90
2022-08-16T06:02:17.092Z,99.90
2022-08-16T06:04:34.904Z,99.90
2022-08-16T06:06:43.509Z,99.90
2022-08-16T06:09:00.720Z,99.90
2022-08-16T06:11:10.124Z,99.90
2022-08-16T06:13:13.506Z,99.90
2022-08-16T06:15:21.379Z,99.90
2022-08-16T06:17:24.776Z,99.90
2022-08-16T06:19:48.402Z,99.90
2022-08-16T06:21:55.221Z,99.90
2022-08-16T06:24:01.235Z,99.90
2022-08-16T06:26:07.997Z,99.90
2022-08-16T06:28:17.242Z,99.90
2022-08-16T06:30:43.383Z,99.90
2022-08-16T06:32:48.558Z,99.90
2022-08-16T06:34:56.841Z,99.90
2022-08-16T06:37:07.515Z,99.90
2022-08-16T06:39:12.471Z,99.90
2022-08-16T06:41:27.528Z,99.90
2022-08-16T06:43:32.394Z,99.90
2022-08-16T06:45:43.378Z,99.90
2022-08-16T06:47:54.278Z,99.90
2022-08-16T06:50:02.918Z,99.90
2022-08-16T06:52:57.210Z,99.90
2022-08-16T06:54:49.821Z,99.90
2022-08-16T06:56:54.202Z,99.90
2022-08-16T06:58:58.495Z,99.90
2022-08-16T07:01:09.866Z,99.90
2022-08-16T07:03:27.420Z,99.90
2022-08-16T07:05:57.550Z,99.90
2022-08-16T07:08:04.928Z,99.90
2022-08-16T07:10:09.624Z,99.90
2022-08-16T07:12:15.291Z,99.90
2022-08-16T07:14:24.703Z,99.90
2022-08-16T07:16:29.131Z,99.90
2022-08-16T07:18:35.280Z,99.90
2022-08-16T07:21:23.195Z,99.90
2022-08-16T07:23:37.381Z,99.90
2022-08-16T07:25:44.379Z,99.90
2022-08-16T07:27:47.853Z,99.90
2022-08-16T07:29:55.568Z,99.90
2022-08-16T07:32:01.044Z,99.90
2022-08-16T07:34:04.177Z,99.90
2022-08-16T07:36:22.012Z,99.90
2022-08-16T07:38:33.723Z,99.90
2022-08-16T07:41:00.351Z,99.90
2022-08-16T07:43:05.801Z,99.90
2022-08-16T07:45:11.777Z,99.90
2022-08-16T07:47:20.066Z,99.90
2022-08-16T07:49:32.410Z,99.90
2022-08-16T07:51:38.812Z,99.80
2022-08-16T07:53:44.645Z,99.50
2022-08-16T07:55:49.849Z,99.40
2022-08-16T07:58:03.309Z,98.90
2022-08-16T08:00:18.291Z,98.50
2022-08-16T08:02:27.287Z,98.20
2022-08-16T08:04:35.174Z,97.60
2022-08-16T08:06:37.878Z,97.30
2022-08-16T08:08:52.371Z,97.30
2022-08-16T08:10:56.863Z,97.00
2022-08-16T08:13:04.828Z,97.20
2022-08-16T08:15:11.940Z,97.20
2022-08-16T08:17:17.844Z,97.10
2022-08-16T08:19:21.387Z,96.90
2022-08-16T08:21:26.232Z,96.70
2022-08-16T08:23:31.330Z,96.30
2022-08-16T08:25:53.963Z,96.00
2022-08-16T08:28:00.483Z,95.50
2022-08-16T08:30:50.029Z,95.40
2022-08-16T08:32:58.572Z,94.90
2022-08-16T08:34:52.822Z,94.60
2022-08-16T08:36:56.909Z,94.30
2022-08-16T08:39:21.085Z,93.90
2022-08-16T08:41:30.455Z,93.40
2022-08-16T08:43:41.325Z,93.50
2022-08-16T08:45:57.642Z,92.90
2022-08-16T08:48:01.493Z,92.30
2022-08-16T08:50:08.980Z,92.60
2022-08-16T08:52:12.334Z,92.70
2022-08-16T08:54:36.586Z,92.10
2022-08-16T08:56:45.464Z,91.50
2022-08-16T08:59:04.675Z,91.40
2022-08-16T09:01:31.285Z,91.20
2022-08-16T09:03:37.922Z,91.00
2022-08-16T09:05:41.068Z,91.30
2022-08-16T09:08:01.580Z,90.90
2022-08-16T09:10:20.455Z,91.10
2022-08-16T09:12:30.200Z,90.70
2022-08-16T09:14:50.791Z,90.80
2022-08-16T09:17:03.135Z,90.20
2022-08-16T09:21:09.790Z,88.30
2022-08-16T09:23:13.801Z,87.20
2022-08-16T09:25:26.316Z,86.30
2022-08-16T09:27:56.578Z,84.20
2022-08-16T09:30:00.732Z,81.80
2022-08-16T09:32:25.602Z,81.00
2022-08-16T09:34:33.318Z,79.80
2022-08-16T09:36:36.259Z,79.60
2022-08-16T09:38:40.833Z,79.60
2022-08-16T09:40:49.614Z,79.40
2022-08-16T09:43:05.944Z,79.00
2022-08-16T09:45:17.134Z,78.20
2022-08-16T09:47:23.399Z,78.10
2022-08-16T09:49:26.445Z,77.20
2022-08-16T09:51:41.233Z,76.80
2022-08-16T09:53:44.004Z,77.20
2022-08-16T09:55:57.672Z,77.60
2022-08-16T09:58:01.382Z,78.50
2022-08-16T10:00:44.463Z,78.50
2022-08-16T10:02:34.699Z,77.80
2022-08-16T10:04:54.526Z,77.30
2022-08-16T10:09:10.716Z,76.50
2022-08-16T10:11:33.424Z,73.60
2022-08-16T10:13:52.766Z,73.70
2022-08-16T10:15:59.677Z,72.80
2022-08-16T10:19:00.986Z,72.10
2022-08-16T10:20:42.342Z,70.90
2022-08-16T10:22:47.226Z,71.20
2022-08-16T10:24:56.074Z,70.90
2022-08-16T10:27:26.438Z,69.90
2022-08-16T10:29:25.298Z,69.00
2022-08-16T10:31:53.575Z,70.30
2022-08-16T10:33:58.710Z,68.50
2022-08-16T10:36:06.318Z,66.50
2022-08-16T10:38:27.095Z,66.50
2022-08-16T10:40:32.266Z,66.10
2022-08-16T10:42:36.633Z,65.80
2022-08-16T10:44:39.262Z,65.30
2022-08-16T10:46:42.973Z,64.70
2022-08-16T10:48:47.718Z,63.80
2022-08-16T10:50:51.248Z,64.10
2022-08-16T10:52:58.701Z,64.20
2022-08-16T10:57:25.381Z,62.10
2022-08-16T10:59:45.149Z,61.90
2022-08-16T11:06:42.261Z,58.40
2022-08-16T11:11:27.286Z,58.10
2022-08-16T11:15:55.442Z,58.90
2022-08-16T11:20:41.502Z,59.40
2022-08-16T11:22:48.977Z,60.70
2022-08-16T11:25:11.878Z,60.10
2022-08-16T11:27:20.067Z,60.60
2022-08-16T11:29:26.806Z,60.60
2022-08-16T11:31:29.578Z,60.20
2022-08-16T11:38:46.897Z,58.70
2022-08-16T11:40:58.562Z,57.90
2022-08-16T11:43:04.053Z,57.30
2022-08-16T11:45:07.828Z,56.90
2022-08-16T11:47:10.500Z,56.50
2022-08-16T11:49:14.288Z,56.20
2022-08-16T11:51:17.587Z,55.00
2022-08-16T11:53:23.806Z,55.00
2022-08-16T11:55:26.852Z,55.00
2022-08-16T11:57:31.205Z,55.10
2022-08-16T11:59:35.844Z,54.50
2022-08-16T12:01:55.018Z,54.80
2022-08-16T12:04:01.870Z,54.80
2022-08-16T12:06:25.550Z,54.10
2022-08-16T12:08:33.398Z,53.60
2022-08-16T12:10:39.075Z,53.50
2022-08-16T12:12:43.817Z,53.90
2022-08-16T12:14:52.130Z,54.70
2022-08-16T12:17:05.029Z,55.50
2022-08-16T12:19:10.656Z,54.50
2022-08-16T12:21:18.406Z,54.80
2022-08-16T12:23:23.870Z,54.70
2022-08-16T12:25:30.725Z,54.50
2022-08-16T12:27:35.539Z,54.30
2022-08-16T12:29:42.779Z,54.10
2022-08-16T12:31:59.240Z,54.30
2022-08-16T12:34:10.735Z,54.80
2022-08-16T12:36:30.334Z,54.40
2022-08-16T12:38:40.811Z,53.60
2022-08-16T12:40:53.006Z,53.70
2022-08-16T12:43:01.115Z,54.60
2022-08-16T12:45:12.133Z,54.80
2022-08-16T12:47:33.351Z,54.90
2022-08-16T12:49:42.129Z,53.90
2022-08-16T12:51:58.677Z,53.20
2022-08-16T12:54:07.610Z,52.20
2022-08-16T12:56:12.730Z,51.60
2022-08-16T12:58:48.710Z,52.20
2022-08-16T13:00:40.207Z,52.20
2022-08-16T13:02:47.592Z,52.50
2022-08-16T13:04:50.508Z,52.10
2022-08-16T13:06:53.361Z,51.60
2022-08-16T13:09:02.345Z,51.20
2022-08-16T13:11:13.851Z,51.10
2022-08-16T13:13:25.004Z,51.10
2022-08-16T13:15:29.313Z,50.80
2022-08-16T13:17:33.003Z,50.70
2022-08-16T13:20:05.929Z,50.80
2022-08-16T13:21:59.869Z,51.00
2022-08-16T13:24:04.065Z,51.30
2022-08-16T13:26:08.333Z,51.80
2022-08-16T13:28:16.910Z,52.20
2022-08-16T13:30:35.561Z,52.20
2022-08-16T13:32:40.959Z,52.20
2022-08-16T13:34:43.667Z,52.30
2022-08-16T13:36:49.528Z,52.60
2022-08-16T13:38:56.323Z,52.60
2022-08-16T13:41:02.535Z,51.60
2022-08-16T13:43:05.165Z,52.00
2022-08-16T13:45:10.189Z,51.60
2022-08-16T13:47:19.758Z,52.10
2022-08-16T13:49:23.355Z,52.60
2022-08-16T13:51:30.818Z,52.00
2022-08-16T13:53:33.464Z,52.10
2022-08-16T13:55:36.054Z,51.80
2022-08-16T13:58:35.205Z,52.30
2022-08-16T14:00:05.505Z,53.10
2022-08-16T14:02:15.554Z,52.50
2022-08-16T14:04:18.969Z,52.70
2022-08-16T14:06:28.908Z,52.60
2022-08-16T14:08:31.503Z,52.80
2022-08-16T14:10:34.164Z,53.20
2022-08-16T14:12:37.711Z,53.70
2022-08-16T14:14:41.369Z,54.10
2022-08-16T14:16:45.170Z,53.50
2022-08-16T14:18:47.776Z,53.50
2022-08-16T14:20:51.897Z,52.90
2022-08-16T14:22:55.442Z,52.80
2022-08-16T14:25:00.129Z,52.40
2022-08-16T14:27:04.363Z,52.20
2022-08-16T14:29:07.218Z,52.00
2022-08-16T14:31:09.990Z,52.00
2022-08-16T14:33:14.199Z,52.10
2022-08-16T14:35:36.781Z,52.20
2022-08-16T14:37:52.560Z,52.40
2022-08-16T14:40:01.087Z,52.60
2022-08-16T14:42:13.606Z,52.60
2022-08-16T14:44:16.668Z,52.40
2022-08-16T14:46:20.455Z,52.40
2022-08-16T14:48:26.253Z,52.60
2022-08-16T14:50:29.386Z,52.60
2022-08-16T14:54:55.450Z,52.80
2022-08-16T14:56:58.582Z,52.80
2022-08-16T14:59:01.380Z,52.10
2022-08-16T15:01:09.983Z,51.80
2022-08-16T15:03:13.121Z,51.90
2022-08-16T15:05:17.087Z,52.20
2022-08-16T15:07:22.109Z,52.60
2022-08-16T15:09:25.683Z,52.60
2022-08-16T15:11:28.302Z,52.00
2022-08-16T15:13:36.037Z,52.00
2022-08-16T15:15:39.415Z,51.80
2022-08-16T15:17:53.722Z,52.00
2022-08-16T15:19:57.366Z,51.70
2022-08-16T15:22:02.134Z,50.70
2022-08-16T15:24:07.498Z,51.10
2022-08-16T15:26:34.663Z,50.50
2022-08-16T15:28:44.570Z,51.90
2022-08-16T15:30:59.446Z,56.90
2022-08-16T15:33:15.417Z,57.80
2022-08-16T15:35:18.488Z,57.50
2022-08-16T15:37:21.132Z,55.00
2022-08-16T15:39:37.137Z,56.30
2022-08-16T15:41:43.507Z,55.70
2022-08-16T15:43:46.431Z,55.20
2022-08-16T15:46:07.826Z,55.10
2022-08-16T15:48:13.681Z,54.50
2022-08-16T15:50:19.851Z,55.10
2022-08-16T15:52:30.729Z,55.70
2022-08-16T15:54:33.579Z,55.90
2022-08-16T15:56:36.299Z,56.20
2022-08-16T15:58:39.100Z,55.70
2022-08-16T16:00:43.533Z,55.70
2022-08-16T16:02:47.086Z,56.00
2022-08-16T16:04:52.265Z,56.00
2022-08-16T16:06:57.297Z,55.20
2022-08-16T16:09:02.402Z,55.10
2022-08-16T16:11:07.199Z,55.50
2022-08-16T16:13:11.885Z,56.50
2022-08-16T16:15:18.839Z,56.20
2022-08-16T16:17:21.469Z,55.80
2022-08-16T16:19:24.007Z,55.90
2022-08-16T16:21:30.062Z,55.50
2022-08-16T16:23:44.820Z,53.50
2022-08-16T16:26:03.511Z,52.50
2022-08-16T16:29:05.313Z,52.30
2022-08-16T16:30:45.186Z,53.20
2022-08-16T16:32:51.185Z,53.50
2022-08-16T16:34:59.223Z,53.40
2022-08-16T16:37:04.112Z,53.20
2022-08-16T16:39:11.281Z,52.70
2022-08-16T16:41:22.739Z,52.50
2022-08-16T16:43:31.351Z,52.10
2022-08-16T16:45:40.006Z,52.50
2022-08-16T16:47:42.793Z,52.40
2022-08-16T16:49:50.534Z,52.30
2022-08-16T16:52:06.652Z,52.40
2022-08-16T16:54:13.237Z,52.60
2022-08-16T16:56:27.498Z,51.90
2022-08-16T16:58:54.202Z,51.60
2022-08-16T17:00:58.421Z,51.90
2022-08-16T17:03:02.927Z,52.30
2022-08-16T17:05:08.509Z,52.70
2022-08-16T17:07:14.660Z,52.40
2022-08-16T17:09:18.867Z,52.50
2022-08-16T17:11:25.749Z,52.80
2022-08-16T17:13:33.024Z,53.10
2022-08-16T17:15:40.967Z,53.20
2022-08-16T17:17:59.962Z,53.10
2022-08-16T17:20:12.785Z,52.90
2022-08-16T17:22:20.674Z,52.90
2022-08-16T17:26:49.182Z,53.60
2022-08-16T17:29:11.192Z,53.60
2022-08-16T17:31:16.364Z,53.60
2022-08-16T17:33:21.857Z,53.90
2022-08-16T17:35:38.252Z,53.70
2022-08-16T17:37:51.001Z,53.90
2022-08-16T17:39:28.503Z,53.30
2022-08-16T17:40:00.319Z,54.50
2022-08-16T17:42:15.947Z,55.00
2022-08-16T17:44:19.885Z,55.00
2022-08-16T17:46:51.800Z,55.60
2022-08-16T17:48:45.330Z,55.90
2022-08-16T17:50:48.234Z,55.80
2022-08-16T17:52:58.461Z,56.60
2022-08-16T17:55:12.419Z,57.10
2022-08-16T17:57:16.962Z,57.60
2022-08-16T17:59:20.809Z,58.10
2022-08-16T18:01:27.086Z,58.50
2022-08-16T18:04:02.842Z,59.10
2022-08-16T18:06:11.048Z,59.30
2022-08-16T18:08:16.295Z,59.60
2022-08-16T18:10:32.658Z,59.80
2022-08-16T18:12:54.978Z,60.00
2022-08-16T18:15:00.865Z,60.10
2022-08-16T18:17:08.784Z,60.30
2022-08-16T18:19:14.689Z,60.80
2022-08-16T18:21:36.626Z,61.60
2022-08-16T18:23:39.847Z,62.50
2022-08-16T18:25:53.053Z,63.60
2022-08-16T18:27:57.639Z,64.00
2022-08-16T18:30:05.673Z,65.10
2022-08-16T18:32:09.203Z,66.10
2022-08-16T18:34:11.934Z,67.10
2022-08-16T18:36:21.182Z,66.50
2022-08-16T18:38:24.229Z,65.60
2022-08-16T18:40:27.147Z,65.50
2022-08-16T18:42:29.853Z,65.40
2022-08-16T18:44:38.082Z,65.70
2022-08-16T18:46:43.344Z,64.70
2022-08-16T18:48:45.949Z,64.30
2022-08-16T18:50:59.713Z,64.20
2022-08-16T18:53:16.457Z,64.90
2022-08-16T18:55:20.730Z,65.30
2022-08-16T18:57:26.061Z,66.00
2022-08-16T18:59:31.176Z,67.10
2022-08-16T19:01:34.827Z,67.60
2022-08-16T19:03:40.217Z,68.30
2022-08-16T19:06:05.565Z,69.00
2022-08-16T19:08:16.991Z,69.40
2022-08-16T19:10:21.128Z,69.50
2022-08-16T19:12:37.948Z,69.10
2022-08-16T19:14:58.301Z,69.80
2022-08-16T19:17:01.797Z,71.10
2022-08-16T19:19:08.607Z,70.80
2022-08-16T19:21:14.451Z,71.80
2022-08-16T19:23:22.970Z,71.80
2022-08-16T19:25:47.063Z,73.50
2022-08-16T19:27:58.160Z,74.50
2022-08-16T19:30:05.148Z,74.60
2022-08-16T19:32:27.695Z,74.00
2022-08-16T19:34:30.922Z,74.10
2022-08-16T19:36:38.029Z,74.20
2022-08-16T19:38:47.344Z,75.00
2022-08-16T19:40:51.820Z,75.40
2022-08-16T19:42:56.187Z,74.90
2022-08-16T19:45:16.953Z,74.70
2022-08-16T19:47:20.587Z,74.60
2022-08-16T19:49:24.651Z,75.30
2022-08-16T19:51:31.988Z,75.20
2022-08-16T19:53:34.848Z,74.90
2022-08-16T19:55:37.686Z,74.80
2022-08-16T19:57:43.983Z,75.60
2022-08-16T19:59:48.346Z,75.90
2022-08-16T20:01:52.842Z,75.80
2022-08-16T20:04:00.566Z,76.40
2022-08-16T20:06:04.212Z,76.40
2022-08-16T20:08:08.357Z,76.40
2022-08-16T20:10:14.399Z,77.00
2022-08-16T20:12:23.699Z,77.10
2022-08-16T20:14:27.315Z,77.50
2022-08-16T20:16:31.999Z,77.80
2022-08-16T20:18:41.148Z,77.70
2022-08-16T20:20:44.725Z,77.80
2022-08-16T20:22:54.265Z,78.00
2022-08-16T20:25:00.934Z,78.30
2022-08-16T20:27:07.368Z,78.10
2022-08-16T20:29:10.288Z,78.10
2022-08-16T20:31:14.903Z,78.00
2022-08-16T20:33:18.853Z,77.80
2022-08-16T20:35:25.414Z,77.90
2022-08-16T20:37:28.299Z,78.00
2022-08-16T20:39:32.727Z,78.90
2022-08-16T20:41:35.452Z,80.00
2022-08-16T20:43:51.083Z,79.30
2022-08-16T20:46:06.374Z,79.00
2022-08-16T20:48:11.289Z,79.60
2022-08-16T20:50:14.139Z,79.80
2022-08-16T20:52:19.808Z,80.60
2022-08-16T20:54:22.677Z,81.60
2022-08-16T20:56:25.255Z,81.30
2022-08-16T20:58:30.333Z,81.10
2022-08-16T21:00:36.035Z,81.70
2022-08-16T21:02:40.712Z,82.10
2022-08-16T21:04:45.477Z,83.10
2022-08-16T21:06:54.113Z,84.00
2022-08-16T21:09:03.615Z,83.70
2022-08-16T21:11:08.216Z,84.40
2022-08-16T21:13:12.631Z,84.50
2022-08-16T21:15:17.412Z,84.80
2022-08-16T21:17:20.141Z,84.80
2022-08-16T21:19:23.143Z,84.60
2022-08-16T21:21:31.831Z,84.30
2022-08-16T21:23:36.261Z,84.10
2022-08-16T21:25:58.405Z,84.00
2022-08-16T21:28:40.334Z,83.70
2022-08-16T21:30:33.962Z,84.60
2022-08-16T21:32:37.404Z,85.30
2022-08-16T21:34:45.905Z,85.30
2022-08-16T21:36:50.107Z,85.30
2022-08-16T21:38:53.150Z,85.00
2022-08-16T21:40:57.843Z,84.90
2022-08-16T21:43:11.994Z,84.90
2022-08-16T21:45:15.029Z,84.70
2022-08-16T21:47:17.892Z,84.50
2022-08-16T21:49:20.531Z,84.90
2022-08-16T21:51:23.145Z,84.80
2022-08-16T21:53:26.753Z,85.10
2022-08-16T21:55:29.323Z,85.30
2022-08-16T21:57:35.424Z,85.70
2022-08-16T21:59:39.027Z,86.20
2022-08-16T22:01:43.508Z,85.80
2022-08-16T22:03:46.204Z,86.00
2022-08-16T22:06:12.027Z,86.40
2022-08-16T22:08:14.021Z,86.90
2022-08-16T22:11:06.266Z,87.80
2022-08-16T22:12:49.014Z,87.80
2022-08-16T22:14:51.987Z,87.50
2022-08-16T22:16:55.876Z,87.20
2022-08-16T22:19:00.910Z,87.10
2022-08-16T22:21:03.544Z,87.70
2022-08-16T22:23:18.246Z,87.90
2022-08-16T22:25:23.198Z,88.00
2022-08-16T22:27:25.782Z,88.10
2022-08-16T22:29:28.388Z,88.00
2022-08-16T22:31:31.238Z,88.10
2022-08-16T22:33:33.814Z,88.10
2022-08-16T22:35:42.888Z,88.40
2022-08-16T22:38:46.181Z,88.80
2022-08-16T22:40:09.313Z,89.10
2022-08-16T22:42:12.510Z,88.80
2022-08-16T22:44:15.323Z,88.60
2022-08-16T22:46:19.596Z,88.90
2022-08-16T22:48:22.621Z,89.30
2022-08-16T22:50:25.518Z,89.60
2022-08-16T22:52:44.296Z,89.40
2022-08-16T22:54:50.650Z,89.50
2022-08-16T22:56:53.250Z,89.80
2022-08-16T22:58:56.356Z,90.00
2022-08-16T23:00:59.028Z,90.10
2022-08-16T23:03:13.961Z,90.20
2022-08-16T23:05:17.822Z,90.10
2022-08-16T23:07:20.498Z,90.00
2022-08-16T23:09:23.642Z,90.10
2022-08-16T23:11:26.569Z,90.00
2022-08-16T23:13:29.239Z,90.00
2022-08-16T23:15:40.033Z,90.00
2022-08-16T23:17:43.837Z,90.00
2022-08-16T23:19:47.295Z,90.10
2022-08-16T23:21:49.906Z,90.30
2022-08-16T23:23:52.542Z,90.40
2022-08-16T23:25:58.740Z,90.70
2022-08-16T23:28:01.547Z,90.80
2022-08-16T23:30:04.660Z,90.80
2022-08-16T23:32:12.069Z,90.80
2022-08-16T23:34:14.668Z,91.20
2022-08-16T23:36:17.297Z,91.20
2022-08-16T23:38:38.242Z,91.20
2022-08-16T23:40:42.500Z,91.40
2022-08-16T23:43:19.148Z,91.60
2022-08-16T23:45:26.883Z,92.00
2022-08-16T23:47:29.503Z,91.80
2022-08-16T23:49:59.360Z,91.90
2022-08-16T23:51:57.034Z,92.00
2022-08-16T23:54:00.643Z,91.80
2022-08-16T23:56:11.296Z,91.70
2022-08-16T23:58:16.893Z,91.80
